createdAt,value
2022-09-07T00:00:40.519Z,1.80
2022-09-07T00:03:07.713Z,1.63
2022-09-07T00:05:40.970Z,1.90
2022-09-07T00:08:07.883Z,1.63
2022-09-07T00:10:34.765Z,1.70
2022-09-07T00:13:03.531Z,2.03
2022-09-07T00:15:30.767Z,1.67
2022-09-07T00:17:57.661Z,1.70
2022-09-07T00:20:24.559Z,1.70
2022-09-07T00:22:51.667Z,1.90
2022-09-07T00:25:18.650Z,1.73
2022-09-07T00:27:45.512Z,1.70
2022-09-07T00:30:13.852Z,1.90
2022-09-07T00:32:40.781Z,1.70
2022-09-07T00:35:08.315Z,2.07
2022-09-07T00:37:35.259Z,1.60
2022-09-07T00:40:03.224Z,1.80
2022-09-07T00:42:30.350Z,2.00
2022-09-07T00:45:07.141Z,1.90
2022-09-07T00:47:41.789Z,2.00
2022-09-07T00:50:14.560Z,2.20
2022-09-07T00:52:44.216Z,2.13
2022-09-07T00:55:13.362Z,1.90
2022-09-07T00:57:43.086Z,1.90
2022-09-07T01:00:10.865Z,1.70
2022-09-07T01:02:39.790Z,1.57
2022-09-07T01:05:14.249Z,1.70
2022-09-07T01:07:41.605Z,1.93
2022-09-07T01:10:09.618Z,1.60
2022-09-07T01:12:36.532Z,1.90
2022-09-07T01:15:04.535Z,1.70
2022-09-07T01:17:41.990Z,1.80
2022-09-07T01:20:36.523Z,1.90
2022-09-07T01:23:57.497Z,1.60
2022-09-07T01:27:09.613Z,1.87
2022-09-07T01:29:43.306Z,1.80
2022-09-07T01:32:16.869Z,1.70
2022-09-07T01:34:47.456Z,1.87
2022-09-07T01:37:21.956Z,1.73
2022-09-07T01:39:56.014Z,1.80
2022-09-07T01:42:28.931Z,1.90
2022-09-07T01:45:00.224Z,2.00
2022-09-07T01:47:32.973Z,1.60
2022-09-07T01:50:04.966Z,1.63
2022-09-07T01:52:38.161Z,1.90
2022-09-07T01:55:10.911Z,1.90
2022-09-07T01:57:43.177Z,1.90
2022-09-07T02:00:14.274Z,1.87
2022-09-07T02:02:46.356Z,1.90
2022-09-07T02:05:18.276Z,1.70
2022-09-07T02:07:48.449Z,1.80
2022-09-07T02:10:21.658Z,1.70
2022-09-07T02:12:53.206Z,1.70
2022-09-07T02:15:26.194Z,1.80
2022-09-07T02:17:58.997Z,1.70
2022-09-07T02:20:31.471Z,2.03
2022-09-07T02:23:00.203Z,1.90
2022-09-07T02:25:32.544Z,2.00
2022-09-07T02:28:05.069Z,2.10
2022-09-07T02:30:33.654Z,2.20
2022-09-07T02:33:00.574Z,1.90
2022-09-07T02:35:27.536Z,2.10
2022-09-07T02:37:54.993Z,1.90
2022-09-07T02:40:21.823Z,2.17
2022-09-07T02:42:49.022Z,2.10
2022-09-07T02:45:17.066Z,1.83
2022-09-07T02:48:00.216Z,2.13
2022-09-07T02:50:43.215Z,2.47
2022-09-07T02:53:27.858Z,2.57
2022-09-07T02:56:07.294Z,2.07
2022-09-07T02:58:46.072Z,2.10
2022-09-07T03:01:24.954Z,2.03
2022-09-07T03:04:00.711Z,2.50
2022-09-07T03:06:33.020Z,2.10
2022-09-07T03:09:05.232Z,2.43
2022-09-07T03:11:35.512Z,2.37
2022-09-07T03:14:21.362Z,2.23
2022-09-07T03:16:50.870Z,2.57
2022-09-07T03:19:19.364Z,2.23
2022-09-07T03:21:46.331Z,2.40
2022-09-07T03:24:13.373Z,2.40
2022-09-07T03:26:43.770Z,2.30
2022-09-07T03:29:10.830Z,2.00
2022-09-07T03:31:38.138Z,2.30
2022-09-07T03:34:05.130Z,2.43
2022-09-07T03:36:34.155Z,2.10
2022-09-07T03:39:01.323Z,2.50
2022-09-07T03:41:28.743Z,2.27
2022-09-07T03:43:56.528Z,2.37
2022-09-07T03:46:23.509Z,2.40
2022-09-07T03:48:50.500Z,2.17
2022-09-07T03:51:18.325Z,2.40
2022-09-07T03:53:47.377Z,2.20
2022-09-07T03:56:18.127Z,2.50
2022-09-07T03:58:46.187Z,2.57
2022-09-07T04:01:15.885Z,2.50
2022-09-07T04:03:43.114Z,2.50
2022-09-07T04:06:10.050Z,2.40
2022-09-07T04:08:38.641Z,2.30
2022-09-07T04:11:09.803Z,2.73
2022-09-07T04:13:37.110Z,2.43
2022-09-07T04:16:10.630Z,2.50
2022-09-07T04:18:37.816Z,2.67
2022-09-07T04:21:05.021Z,2.70
2022-09-07T04:23:32.295Z,2.50
2022-09-07T04:25:59.516Z,2.50
2022-09-07T04:28:27.852Z,2.40
2022-09-07T04:30:54.824Z,2.43
2022-09-07T04:33:21.826Z,2.57
2022-09-07T04:35:48.694Z,2.30
2022-09-07T04:38:16.413Z,2.50
2022-09-07T04:40:43.982Z,2.50
2022-09-07T04:43:13.076Z,2.77
2022-09-07T04:45:41.415Z,2.80
2022-09-07T04:48:08.285Z,2.80
2022-09-07T04:50:35.429Z,2.53
2022-09-07T04:53:02.372Z,2.50
2022-09-07T04:55:29.278Z,2.93
2022-09-07T04:57:56.163Z,2.87
2022-09-07T05:00:23.007Z,2.80
2022-09-07T05:02:51.331Z,2.80
2022-09-07T05:05:18.638Z,3.00
2022-09-07T05:07:45.601Z,3.40
2022-09-07T05:10:12.532Z,3.47
2022-09-07T05:12:39.717Z,3.57
2022-09-07T05:15:07.100Z,3.07
2022-09-07T05:17:34.073Z,2.97
2022-09-07T05:20:02.980Z,2.60
2022-09-07T05:22:29.981Z,2.60
2022-09-07T05:24:57.071Z,3.20
2022-09-07T05:27:24.042Z,3.00
2022-09-07T05:30:06.679Z,2.97
2022-09-07T05:32:34.078Z,2.93
2022-09-07T05:35:02.351Z,2.67
2022-09-07T05:37:29.187Z,2.87
2022-09-07T05:39:57.001Z,2.73
2022-09-07T05:42:24.095Z,2.73
2022-09-07T05:44:50.973Z,2.90
2022-09-07T05:47:17.828Z,2.80
2022-09-07T05:49:44.778Z,2.90
2022-09-07T05:52:13.008Z,2.73
2022-09-07T05:54:40.158Z,2.80
2022-09-07T05:57:07.602Z,2.90
2022-09-07T05:59:36.637Z,2.97
2022-09-07T06:02:04.054Z,2.57
2022-09-07T06:04:31.345Z,2.37
2022-09-07T06:07:21.142Z,2.30
2022-09-07T06:12:33.586Z,2.87
2022-09-07T06:15:01.548Z,2.57
2022-09-07T06:17:28.906Z,2.37
2022-09-07T06:19:55.863Z,2.30
2022-09-07T06:22:22.784Z,2.63
2022-09-07T06:24:51.000Z,2.50
2022-09-07T06:27:17.931Z,2.73
2022-09-07T06:29:44.840Z,2.40
2022-09-07T06:34:58.648Z,2.40
2022-09-07T06:37:25.491Z,2.33
2022-09-07T06:39:53.683Z,2.23
2022-09-07T06:42:20.602Z,2.20
2022-09-07T06:44:52.348Z,2.67
2022-09-07T06:47:19.353Z,2.20
2022-09-07T06:49:46.299Z,2.60
2022-09-07T06:52:13.144Z,2.80
2022-09-07T06:57:28.354Z,2.37
2022-09-07T06:59:55.292Z,2.30
2022-09-07T07:02:22.128Z,2.20
2022-09-07T07:04:50.102Z,2.50
2022-09-07T07:07:17.005Z,2.77
2022-09-07T07:09:43.930Z,2.23
2022-09-07T07:12:11.161Z,2.30
2022-09-07T07:14:44.096Z,2.60
2022-09-07T07:17:12.113Z,2.47
2022-09-07T07:19:39.016Z,2.30
2022-09-07T07:22:18.847Z,2.53
2022-09-07T07:24:52.808Z,2.53
2022-09-07T07:27:21.481Z,2.27
2022-09-07T07:29:49.963Z,2.43
2022-09-07T07:32:16.812Z,2.50
2022-09-07T07:34:43.656Z,2.50
2022-09-07T07:37:10.458Z,2.33
2022-09-07T07:42:24.292Z,2.30
2022-09-07T07:47:39.442Z,2.60
2022-09-07T07:55:43.241Z,2.67
2022-09-07T07:58:10.686Z,2.50
2022-09-07T08:00:53.681Z,2.70
2022-09-07T08:03:21.757Z,2.43
2022-09-07T08:05:48.678Z,2.40
2022-09-07T08:08:15.546Z,2.77
2022-09-07T08:10:42.502Z,2.60
2022-09-07T08:13:09.472Z,2.30
2022-09-07T08:15:45.182Z,2.37
2022-09-07T08:18:12.407Z,2.40
2022-09-07T08:20:39.350Z,2.43
2022-09-07T08:23:07.461Z,2.53
2022-09-07T08:25:34.980Z,2.40
2022-09-07T08:28:02.421Z,2.90
2022-09-07T08:30:29.415Z,2.77
2022-09-07T08:32:57.673Z,2.57
2022-09-07T08:35:24.879Z,2.40
2022-09-07T08:37:51.712Z,2.17
2022-09-07T08:40:19.490Z,2.50
2022-09-07T08:42:59.426Z,2.40
2022-09-07T08:45:30.001Z,2.20
2022-09-07T08:47:58.430Z,2.30
2022-09-07T08:50:31.058Z,2.13
2022-09-07T08:53:02.640Z,2.20
2022-09-07T08:55:31.943Z,2.08
2022-09-07T08:58:04.821Z,2.30
2022-09-07T09:00:31.677Z,2.40
2022-09-07T09:05:57.641Z,2.08
2022-09-07T09:08:37.385Z,1.90
2022-09-07T09:11:09.494Z,2.33
2022-09-07T09:13:46.949Z,2.00
2022-09-07T09:16:20.484Z,2.08
2022-09-07T09:18:59.901Z,1.92
2022-09-07T09:21:27.392Z,2.28
2022-09-07T09:24:01.929Z,3.55
2022-09-07T09:26:31.034Z,2.10
2022-09-07T09:28:58.015Z,2.40
2022-09-07T09:31:28.677Z,1.73
2022-09-07T09:34:11.624Z,2.03
2022-09-07T09:36:44.219Z,1.85
2022-09-07T09:39:29.011Z,1.63
2022-09-07T09:41:58.441Z,1.98
2022-09-07T09:44:31.116Z,1.60
2022-09-07T09:49:46.494Z,2.00
2022-09-07T09:52:41.817Z,1.85
2022-09-07T10:04:00.905Z,2.30
2022-09-07T10:06:32.078Z,2.15
2022-09-07T10:09:01.802Z,1.90
2022-09-07T10:14:35.454Z,1.90
2022-09-07T10:17:11.618Z,2.03
2022-09-07T10:19:40.434Z,1.90
2022-09-07T10:22:29.999Z,1.80
2022-09-07T10:24:56.825Z,2.03
2022-09-07T10:27:31.827Z,1.83
2022-09-07T10:29:59.325Z,2.05
2022-09-07T10:32:51.814Z,2.00
2022-09-07T10:35:25.477Z,2.10
2022-09-07T10:38:07.732Z,2.05
2022-09-07T10:40:37.982Z,2.10
2022-09-07T10:43:21.474Z,1.70
2022-09-07T10:46:02.459Z,1.90
2022-09-07T10:48:35.590Z,1.80
2022-09-07T10:51:13.779Z,1.88
2022-09-07T10:54:30.037Z,1.88
2022-09-07T10:56:46.743Z,2.08
2022-09-07T11:00:07.615Z,1.98
2022-09-07T11:02:24.737Z,2.00
2022-09-07T11:05:03.756Z,2.28
2022-09-07T11:07:48.309Z,2.00
2022-09-07T11:10:25.732Z,2.38
2022-09-07T11:12:58.020Z,2.10
2022-09-07T11:15:27.767Z,1.90
2022-09-07T11:17:59.431Z,1.85
2022-09-07T11:20:30.257Z,1.80
2022-09-07T11:23:07.107Z,1.70
2022-09-07T11:25:40.926Z,1.60
2022-09-07T11:28:14.352Z,1.70
2022-09-07T11:30:46.263Z,1.48
2022-09-07T11:33:19.116Z,1.50
2022-09-07T11:35:51.688Z,2.08
2022-09-07T11:38:30.689Z,1.92
2022-09-07T11:41:10.448Z,2.20
2022-09-07T11:43:41.328Z,2.00
2022-09-07T11:46:13.820Z,2.10
2022-09-07T11:48:45.575Z,2.17
2022-09-07T11:51:19.826Z,1.77
2022-09-07T11:53:51.219Z,1.83
2022-09-07T11:56:26.108Z,1.90
2022-09-07T11:59:14.382Z,2.20
2022-09-07T12:01:50.571Z,2.08
2022-09-07T12:04:56.213Z,1.80
2022-09-07T12:07:42.506Z,1.92
2022-09-07T12:10:24.629Z,1.85
2022-09-07T12:13:10.706Z,2.30
2022-09-07T12:15:49.766Z,2.10
2022-09-07T12:18:26.799Z,2.20
2022-09-07T12:20:54.850Z,2.03
2022-09-07T12:23:27.242Z,1.80
2022-09-07T12:26:32.897Z,1.95
2022-09-07T12:29:20.460Z,1.75
2022-09-07T12:34:55.659Z,1.75
2022-09-07T12:37:45.320Z,1.90
2022-09-07T12:40:45.794Z,1.92
2022-09-07T12:43:33.310Z,1.80
2022-09-07T12:46:01.913Z,2.15
2022-09-07T12:48:42.562Z,1.80
2022-09-07T12:51:16.510Z,1.90
2022-09-07T12:53:57.857Z,1.70
2022-09-07T12:56:38.185Z,2.05
2022-09-07T12:59:31.163Z,1.90
2022-09-07T13:02:12.089Z,1.58
2022-09-07T13:04:56.952Z,1.80
2022-09-07T13:08:08.237Z,2.08
2022-09-07T13:10:36.922Z,1.77
2022-09-07T13:13:06.772Z,2.00
2022-09-07T13:15:41.468Z,1.70
2022-09-07T13:18:32.406Z,1.60
2022-09-07T13:21:32.046Z,1.70
2022-09-07T13:24:48.774Z,1.80
2022-09-07T13:27:32.795Z,1.70
2022-09-07T13:30:04.933Z,1.67
2022-09-07T13:35:21.526Z,1.80
2022-09-07T13:37:54.100Z,1.63
2022-09-07T13:40:25.945Z,1.58
2022-09-07T13:42:55.706Z,1.67
2022-09-07T13:45:31.708Z,1.90
2022-09-07T13:48:06.213Z,1.65
2022-09-07T13:50:43.374Z,2.10
2022-09-07T13:53:35.610Z,1.77
2022-09-07T13:56:16.870Z,2.03
2022-09-07T13:58:48.005Z,1.70
2022-09-07T14:01:19.397Z,1.65
2022-09-07T14:03:50.274Z,1.80
2022-09-07T14:06:31.862Z,1.95
2022-09-07T14:09:02.762Z,1.80
2022-09-07T14:11:38.545Z,2.00
2022-09-07T14:14:20.293Z,2.00
2022-09-07T14:16:49.872Z,1.70
2022-09-07T14:19:20.633Z,2.03
2022-09-07T14:21:58.780Z,1.92
2022-09-07T14:24:35.643Z,2.10
2022-09-07T14:27:03.542Z,1.80
2022-09-07T14:29:32.351Z,1.80
2022-09-07T14:32:00.905Z,1.83
2022-09-07T14:34:31.353Z,1.80
2022-09-07T14:37:02.930Z,2.00
2022-09-07T14:39:30.392Z,1.50
2022-09-07T14:41:59.025Z,1.70
2022-09-07T14:44:32.184Z,1.60
2022-09-07T14:47:02.306Z,1.77
2022-09-07T14:49:29.333Z,1.45
2022-09-07T14:51:56.941Z,1.88
2022-09-07T14:54:27.477Z,2.10
2022-09-07T14:57:22.547Z,2.10
2022-09-07T14:59:49.467Z,2.40
2022-09-07T15:02:33.918Z,2.78
2022-09-07T15:05:31.201Z,1.67
2022-09-07T15:07:59.429Z,1.63
2022-09-07T15:10:41.350Z,1.80
2022-09-07T15:13:27.754Z,2.08
2022-09-07T15:16:01.419Z,2.63
2022-09-07T15:18:50.576Z,2.17
2022-09-07T15:21:17.872Z,1.90
2022-09-07T15:23:49.624Z,2.60
2022-09-07T15:29:08.841Z,2.28
2022-09-07T15:31:42.615Z,1.80
2022-09-07T15:34:13.200Z,1.63
2022-09-07T15:36:42.329Z,2.05
2022-09-07T15:39:16.936Z,1.90
2022-09-07T15:41:44.004Z,1.77
2022-09-07T15:44:13.821Z,1.80
2022-09-07T15:46:41.072Z,1.90
2022-09-07T15:49:08.047Z,1.80
2022-09-07T15:54:22.253Z,1.97
2022-09-07T15:59:37.783Z,1.70
2022-09-07T16:03:04.405Z,1.80
2022-09-07T16:04:52.720Z,1.60
2022-09-07T16:07:21.640Z,1.85
2022-09-07T16:09:52.320Z,1.80
2022-09-07T16:15:12.755Z,1.48
2022-09-07T16:17:47.329Z,1.60
2022-09-07T16:20:15.260Z,1.70
2022-09-07T16:25:28.956Z,1.67
2022-09-07T16:27:55.884Z,1.70
2022-09-07T16:30:24.895Z,1.83
2022-09-07T16:32:51.828Z,1.80
2022-09-07T16:35:18.716Z,1.67
2022-09-07T16:40:32.614Z,1.70
2022-09-07T16:42:59.422Z,1.60
2022-09-07T16:48:14.841Z,1.90
2022-09-07T16:50:54.180Z,1.80
2022-09-07T16:53:25.902Z,1.90
2022-09-07T16:55:52.774Z,1.70
2022-09-07T17:01:09.768Z,1.97
2022-09-07T17:03:37.445Z,1.80
2022-09-07T17:06:06.606Z,1.90
2022-09-07T17:08:34.265Z,1.77
2022-09-07T17:11:02.535Z,1.70
2022-09-07T17:13:30.850Z,2.00
2022-09-07T17:16:04.975Z,2.00
2022-09-07T17:21:20.555Z,2.40
2022-09-07T17:23:54.809Z,3.13
2022-09-07T17:26:26.522Z,2.67
2022-09-07T17:28:55.718Z,2.20
2022-09-07T17:34:13.742Z,1.97
2022-09-07T17:36:40.721Z,2.07
2022-09-07T17:39:16.752Z,1.90
2022-09-07T17:41:44.353Z,2.13
2022-09-07T17:44:11.601Z,1.90
2022-09-07T17:46:38.449Z,2.00
2022-09-07T17:49:07.903Z,2.47
2022-09-07T17:51:36.176Z,2.17
2022-09-07T17:54:09.724Z,2.17
2022-09-07T17:56:37.329Z,1.90
2022-09-07T18:01:53.688Z,2.40
2022-09-07T18:04:21.402Z,2.50
2022-09-07T18:06:50.156Z,2.10
2022-09-07T18:09:17.399Z,2.07
2022-09-07T18:11:47.314Z,2.10
2022-09-07T18:14:15.525Z,2.30
2022-09-07T18:16:44.958Z,2.40
2022-09-07T18:19:13.008Z,2.50
2022-09-07T18:21:42.088Z,2.50
2022-09-07T18:24:16.770Z,2.30
2022-09-07T18:26:50.161Z,2.60
2022-09-07T18:29:28.289Z,2.20
2022-09-07T18:31:56.696Z,2.60
2022-09-07T18:34:23.674Z,2.00
2022-09-07T18:36:50.623Z,1.87
2022-09-07T18:39:18.894Z,1.97
2022-09-07T18:41:45.867Z,1.87
2022-09-07T18:47:00.050Z,1.87
2022-09-07T18:49:26.995Z,2.00
2022-09-07T18:54:41.959Z,2.10
2022-09-07T18:57:08.813Z,1.87
2022-09-07T18:59:35.628Z,2.20
2022-09-07T19:02:04.789Z,2.10
2022-09-07T19:07:20.521Z,1.87
2022-09-07T19:09:48.916Z,1.90
2022-09-07T19:12:15.921Z,1.97
2022-09-07T19:14:42.773Z,2.07
2022-09-07T19:17:12.788Z,1.83
2022-09-07T19:19:40.229Z,2.00
2022-09-07T19:22:07.039Z,1.70
2022-09-07T19:24:34.217Z,2.30
2022-09-07T19:27:02.406Z,1.70
2022-09-07T19:29:29.612Z,1.77
2022-09-07T19:32:05.400Z,1.90
2022-09-07T19:34:32.621Z,2.17
2022-09-07T19:36:59.566Z,1.77
2022-09-07T19:39:26.722Z,1.70
2022-09-07T19:41:53.844Z,2.17
2022-09-07T19:44:22.072Z,2.03
2022-09-07T19:46:50.001Z,2.20
2022-09-07T19:49:17.235Z,2.17
2022-09-07T19:51:44.153Z,2.00
2022-09-07T19:54:11.933Z,1.60
2022-09-07T19:56:40.188Z,1.80
2022-09-07T19:59:07.379Z,2.00
2022-09-07T20:01:36.179Z,3.47
2022-09-07T20:04:05.330Z,2.90
2022-09-07T20:06:33.340Z,2.00
2022-09-07T20:09:03.819Z,1.90
2022-09-07T20:11:32.456Z,1.80
2022-09-07T20:13:59.376Z,1.87
2022-09-07T20:16:28.098Z,1.90
2022-09-07T20:18:56.496Z,2.00
2022-09-07T20:21:24.662Z,1.90
2022-09-07T20:23:51.849Z,2.00
2022-09-07T20:26:20.486Z,2.23
2022-09-07T20:29:05.622Z,2.10
2022-09-07T20:31:40.055Z,2.10
2022-09-07T20:34:09.739Z,1.80
2022-09-07T20:36:36.933Z,2.13
2022-09-07T20:39:04.531Z,2.37
2022-09-07T20:41:33.889Z,2.13
2022-09-07T20:44:02.412Z,2.10
2022-09-07T20:46:30.316Z,1.90
2022-09-07T20:48:57.571Z,1.97
2022-09-07T20:51:25.982Z,2.30
2022-09-07T20:53:53.269Z,1.90
2022-09-07T20:56:21.927Z,2.00
2022-09-07T20:58:53.345Z,2.07
2022-09-07T21:01:21.267Z,1.87
2022-09-07T21:03:50.053Z,2.10
2022-09-07T21:06:18.655Z,2.07
2022-09-07T21:08:48.196Z,2.00
2022-09-07T21:11:17.567Z,2.00
2022-09-07T21:13:44.903Z,2.30
2022-09-07T21:16:13.886Z,2.10
2022-09-07T21:18:41.904Z,2.10
2022-09-07T21:21:24.176Z,2.00
2022-09-07T21:23:56.803Z,2.33
2022-09-07T21:26:24.324Z,2.10
2022-09-07T21:28:56.066Z,2.20
2022-09-07T21:31:23.189Z,2.17
2022-09-07T21:33:54.086Z,2.13
2022-09-07T21:36:21.091Z,2.00
2022-09-07T21:38:47.927Z,2.20
2022-09-07T21:41:17.734Z,2.40
2022-09-07T21:43:44.896Z,1.93
2022-09-07T21:46:14.377Z,2.20
2022-09-07T21:48:41.637Z,2.00
2022-09-07T21:51:09.004Z,2.10
2022-09-07T21:53:35.866Z,2.13
2022-09-07T21:56:05.180Z,2.30
2022-09-07T21:58:33.879Z,2.77
2022-09-07T22:01:12.641Z,2.47
2022-09-07T22:03:40.477Z,2.40
2022-09-07T22:06:07.711Z,2.50
2022-09-07T22:08:35.577Z,2.37
2022-09-07T22:11:06.869Z,2.63
2022-09-07T22:13:35.311Z,2.50
2022-09-07T22:16:03.487Z,2.70
2022-09-07T22:18:30.817Z,2.80
2022-09-07T22:21:02.263Z,2.53
2022-09-07T22:23:30.385Z,2.90
2022-09-07T22:25:57.314Z,2.53
2022-09-07T22:28:24.227Z,2.50
2022-09-07T22:30:54.652Z,2.20
2022-09-07T22:33:21.795Z,2.53
2022-09-07T22:35:49.328Z,2.30
2022-09-07T22:38:16.350Z,2.30
2022-09-07T22:40:43.334Z,2.70
2022-09-07T22:43:10.222Z,2.73
2022-09-07T22:45:37.033Z,2.40
2022-09-07T22:48:06.923Z,2.50
2022-09-07T22:50:33.836Z,2.80
2022-09-07T22:53:00.693Z,2.70
2022-09-07T22:55:27.526Z,2.60
2022-09-07T22:57:55.518Z,2.90
2022-09-07T23:00:22.461Z,2.93
2022-09-07T23:02:49.408Z,2.90
2022-09-07T23:05:17.757Z,3.07
2022-09-07T23:07:47.974Z,2.87
2022-09-07T23:10:14.904Z,2.90
2022-09-07T23:12:41.758Z,2.90
2022-09-07T23:15:09.413Z,2.63
2022-09-07T23:17:36.262Z,2.40
2022-09-07T23:20:03.772Z,3.10
2022-09-07T23:22:31.964Z,2.80
2022-09-07T23:24:58.805Z,3.13
2022-09-07T23:27:26.721Z,2.80
2022-09-07T23:29:53.567Z,3.07
2022-09-07T23:32:20.493Z,2.87
2022-09-07T23:34:47.353Z,3.00
2022-09-07T23:37:14.216Z,2.90
2022-09-07T23:39:42.473Z,2.90
2022-09-07T23:42:09.417Z,3.03
2022-09-07T23:44:36.289Z,3.37
2022-09-07T23:47:03.161Z,3.10
2022-09-07T23:49:30.032Z,3.03
2022-09-07T23:51:56.896Z,3.30
2022-09-07T23:54:23.826Z,2.77
2022-09-07T23:56:52.044Z,3.40
2022-09-07T23:59:18.926Z,3.00
